sensor_id;sensor_type;location;lat;lon;timestamp;temperature;humidity
6627;DHT22;3349;49.830;8.748;2024-02-28T00:00:43;3.10;99.90
6627;DHT22;3349;49.830;8.748;2024-02-28T00:03:12;3.00;99.90
6627;DHT22;3349;49.830;8.748;2024-02-28T00:05:39;2.90;99.90
6627;DHT22;3349;49.830;8.748;2024-02-28T00:08:06;2.80;99.90
6627;DHT22;3349;49.830;8.748;2024-02-28T00:10:32;2.80;99.90
6627;DHT22;3349;49.830;8.748;2024-02-28T00:12:59;2.80;99.90
6627;DHT22;3349;49.830;8.748;2024-02-28T00:15:26;2.80;99.90
6627;DHT22;3349;49.830;8.748;2024-02-28T00:17:54;2.70;99.90
6627;DHT22;3349;49.830;8.748;2024-02-28T00:20:21;2.70;99.90
6627;DHT22;3349;49.830;8.748;2024-02-28T00:22:49;2.70;99.90
6627;DHT22;3349;49.830;8.748;2024-02-28T00:25:16;2.70;99.90
6627;DHT22;3349;49.830;8.748;2024-02-28T00:27:43;2.70;99.90
6627;DHT22;3349;49.830;8.748;2024-02-28T00:30:10;2.70;99.90
6627;DHT22;3349;49.830;8.748;2024-02-28T00:32:36;2.70;99.90
6627;DHT22;3349;49.830;8.748;2024-02-28T00:35:05;2.60;99.90
6627;DHT22;3349;49.830;8.748;2024-02-28T00:37:32;2.60;99.90
6627;DHT22;3349;49.830;8.748;2024-02-28T00:39:57;2.60;99.90
6627;DHT22;3349;49.830;8.748;2024-02-28T00:42:24;2.50;99.90
6627;DHT22;3349;49.830;8.748;2024-02-28T00:44:52;2.40;99.90
6627;DHT22;3349;49.830;8.748;2024-02-28T00:47:19;2.40;99.90
6627;DHT22;3349;49.830;8.748;2024-02-28T00:49:46;2.40;99.90
6627;DHT22;3349;49.830;8.748;2024-02-28T00:52:14;2.30;99.90
6627;DHT22;3349;49.830;8.748;2024-02-28T00:54:40;2.30;99.90
6627;DHT22;3349;49.830;8.748;2024-02-28T00:57:07;2.30;99.90
6627;DHT22;3349;49.830;8.748;2024-02-28T00:59:34;2.20;99.90
6627;DHT22;3349;49.830;8.748;2024-02-28T01:02:00;2.20;99.90
6627;DHT22;3349;49.830;8.748;2024-02-28T01:04:28;2.10;99.90
6627;DHT22;3349;49.830;8.748;2024-02-28T01:06:55;2.10;99.90
6627;DHT22;3349;49.830;8.748;2024-02-28T01:09:23;2.00;99.90
6627;DHT22;3349;49.830;8.748;2024-02-28T01:11:50;1.90;99.90
6627;DHT22;3349;49.830;8.748;2024-02-28T01:14:16;1.90;99.90
6627;DHT22;3349;49.830;8.748;2024-02-28T01:16:43;2.00;99.90
6627;DHT22;3349;49.830;8.748;2024-02-28T01:19:10;2.00;99.90
6627;DHT22;3349;49.830;8.748;2024-02-28T01:21:38;2.10;99.90
6627;DHT22;3349;49.830;8.748;2024-02-28T01:24:05;2.10;99.90
6627;DHT22;3349;49.830;8.748;2024-02-28T01:26:33;2.00;99.90
6627;DHT22;3349;49.830;8.748;2024-02-28T01:29:00;2.00;99.90
6627;DHT22;3349;49.830;8.748;2024-02-28T01:31:26;2.00;99.90
6627;DHT22;3349;49.830;8.748;2024-02-28T01:33:53;2.00;99.90
6627;DHT22;3349;49.830;8.748;2024-02-28T01:36:21;2.00;99.90
6627;DHT22;3349;49.830;8.748;2024-02-28T01:38:47;2.00;99.90
6627;DHT22;3349;49.830;8.748;2024-02-28T01:41:14;1.90;99.90
6627;DHT22;3349;49.830;8.748;2024-02-28T01:43:42;1.90;99.90
6627;DHT22;3349;49.830;8.748;2024-02-28T01:46:20;1.80;99.90
6627;DHT22;3349;49.830;8.748;2024-02-28T01:48:47;1.80;99.90
6627;DHT22;3349;49.830;8.748;2024-02-28T01:51:14;1.80;99.90
6627;DHT22;3349;49.830;8.748;2024-02-28T01:53:41;1.70;99.90
6627;DHT22;3349;49.830;8.748;2024-02-28T01:56:08;1.70;99.90
6627;DHT22;3349;49.830;8.748;2024-02-28T01:58:35;1.60;99.90
6627;DHT22;3349;49.830;8.748;2024-02-28T02:01:03;1.70;99.90
6627;DHT22;3349;49.830;8.748;2024-02-28T02:03:32;1.70;99.90
6627;DHT22;3349;49.830;8.748;2024-02-28T02:06:00;1.70;99.90
6627;DHT22;3349;49.830;8.748;2024-02-28T02:08:26;1.70;99.90
6627;DHT22;3349;49.830;8.748;2024-02-28T02:10:53;1.70;99.90
6627;DHT22;3349;49.830;8.748;2024-02-28T02:13:20;1.60;99.90
6627;DHT22;3349;49.830;8.748;2024-02-28T02:15:47;1.60;99.90
6627;DHT22;3349;49.830;8.748;2024-02-28T02:18:15;1.60;99.90
6627;DHT22;3349;49.830;8.748;2024-02-28T02:20:43;1.70;99.90
6627;DHT22;3349;49.830;8.748;2024-02-28T02:23:12;1.60;99.90
6627;DHT22;3349;49.830;8.748;2024-02-28T02:25:43;1.60;99.90
6627;DHT22;3349;49.830;8.748;2024-02-28T02:28:10;1.50;99.90
6627;DHT22;3349;49.830;8.748;2024-02-28T02:30:37;1.40;99.90
6627;DHT22;3349;49.830;8.748;2024-02-28T02:33:04;1.40;99.90
6627;DHT22;3349;49.830;8.748;2024-02-28T02:35:31;1.40;99.90
6627;DHT22;3349;49.830;8.748;2024-02-28T02:37:58;1.40;99.90
6627;DHT22;3349;49.830;8.748;2024-02-28T02:40:26;1.30;99.90
6627;DHT22;3349;49.830;8.748;2024-02-28T02:42:53;1.30;99.90
6627;DHT22;3349;49.830;8.748;2024-02-28T02:45:19;1.30;99.90
6627;DHT22;3349;49.830;8.748;2024-02-28T02:47:46;1.30;99.90
6627;DHT22;3349;49.830;8.748;2024-02-28T02:50:12;1.20;99.90
6627;DHT22;3349;49.830;8.748;2024-02-28T02:52:39;1.20;99.90
6627;DHT22;3349;49.830;8.748;2024-02-28T02:55:06;1.20;99.90
6627;DHT22;3349;49.830;8.748;2024-02-28T02:57:35;1.10;99.90
6627;DHT22;3349;49.830;8.748;2024-02-28T03:00:02;1.10;99.90
6627;DHT22;3349;49.830;8.748;2024-02-28T03:02:29;1.00;99.90
6627;DHT22;3349;49.830;8.748;2024-02-28T03:04:57;1.10;99.90
6627;DHT22;3349;49.830;8.748;2024-02-28T03:07:24;1.00;99.90
6627;DHT22;3349;49.830;8.748;2024-02-28T03:09:50;1.00;99.90
6627;DHT22;3349;49.830;8.748;2024-02-28T03:12:17;1.00;99.90
6627;DHT22;3349;49.830;8.748;2024-02-28T03:14:45;1.10;99.90
6627;DHT22;3349;49.830;8.748;2024-02-28T03:17:12;1.00;99.90
6627;DHT22;3349;49.830;8.748;2024-02-28T03:19:38;1.00;99.90
6627;DHT22;3349;49.830;8.748;2024-02-28T03:22:05;1.00;99.90
6627;DHT22;3349;49.830;8.748;2024-02-28T03:24:31;0.90;99.90
6627;DHT22;3349;49.830;8.748;2024-02-28T03:27:00;0.90;99.90
6627;DHT22;3349;49.830;8.748;2024-02-28T03:29:27;0.80;99.90
6627;DHT22;3349;49.830;8.748;2024-02-28T03:31:55;0.80;99.90
6627;DHT22;3349;49.830;8.748;2024-02-28T03:34:22;0.80;99.90
6627;DHT22;3349;49.830;8.748;2024-02-28T03:36:49;0.80;99.90
6627;DHT22;3349;49.830;8.748;2024-02-28T03:39:15;0.70;99.90
6627;DHT22;3349;49.830;8.748;2024-02-28T03:41:42;0.70;99.90
6627;DHT22;3349;49.830;8.748;2024-02-28T03:44:09;0.70;99.90
6627;DHT22;3349;49.830;8.748;2024-02-28T03:46:36;0.70;99.90
6627;DHT22;3349;49.830;8.748;2024-02-28T03:49:04;0.70;99.90
6627;DHT22;3349;49.830;8.748;2024-02-28T03:51:31;0.60;99.90
6627;DHT22;3349;49.830;8.748;2024-02-28T03:53:57;0.70;99.90
6627;DHT22;3349;49.830;8.748;2024-02-28T03:56:25;0.70;99.90
6627;DHT22;3349;49.830;8.748;2024-02-28T03:58:52;0.60;99.90
6627;DHT22;3349;49.830;8.748;2024-02-28T04:01:19;0.70;99.90
6627;DHT22;3349;49.830;8.748;2024-02-28T04:03:45;0.70;99.90
6627;DHT22;3349;49.830;8.748;2024-02-28T04:06:14;0.60;99.90
6627;DHT22;3349;49.830;8.748;2024-02-28T04:08:40;0.70;99.90
6627;DHT22;3349;49.830;8.748;2024-02-28T04:11:07;0.60;99.90
6627;DHT22;3349;49.830;8.748;2024-02-28T04:13:34;0.60;99.90
6627;DHT22;3349;49.830;8.748;2024-02-28T04:16:02;0.50;99.90
6627;DHT22;3349;49.830;8.748;2024-02-28T04:18:29;0.50;99.90
6627;DHT22;3349;49.830;8.748;2024-02-28T04:20:56;0.40;99.90
6627;DHT22;3349;49.830;8.748;2024-02-28T04:23:24;0.40;99.90
6627;DHT22;3349;49.830;8.748;2024-02-28T04:25:51;0.40;99.90
6627;DHT22;3349;49.830;8.748;2024-02-28T04:28:17;0.30;99.90
6627;DHT22;3349;49.830;8.748;2024-02-28T04:30:44;0.30;99.90
6627;DHT22;3349;49.830;8.748;2024-02-28T04:33:11;0.30;99.90
6627;DHT22;3349;49.830;8.748;2024-02-28T04:35:37;0.30;99.90
6627;DHT22;3349;49.830;8.748;2024-02-28T04:38:04;0.20;99.90
6627;DHT22;3349;49.830;8.748;2024-02-28T04:40:32;0.20;99.90
6627;DHT22;3349;49.830;8.748;2024-02-28T04:42:58;0.30;99.90
6627;DHT22;3349;49.830;8.748;2024-02-28T04:45:25;0.30;99.90
6627;DHT22;3349;49.830;8.748;2024-02-28T04:47:52;0.30;99.90
6627;DHT22;3349;49.830;8.748;2024-02-28T04:50:19;0.30;99.90
6627;DHT22;3349;49.830;8.748;2024-02-28T04:52:46;0.30;99.90
6627;DHT22;3349;49.830;8.748;2024-02-28T04:55:13;0.30;99.90
6627;DHT22;3349;49.830;8.748;2024-02-28T04:57:41;0.50;99.90
6627;DHT22;3349;49.830;8.748;2024-02-28T05:00:08;0.50;99.90
6627;DHT22;3349;49.830;8.748;2024-02-28T05:02:35;0.50;99.90
6627;DHT22;3349;49.830;8.748;2024-02-28T05:05:02;0.40;99.90
6627;DHT22;3349;49.830;8.748;2024-02-28T05:07:29;0.40;99.90
6627;DHT22;3349;49.830;8.748;2024-02-28T05:09:55;0.30;99.90
6627;DHT22;3349;49.830;8.748;2024-02-28T05:12:22;0.40;99.90
6627;DHT22;3349;49.830;8.748;2024-02-28T05:14:50;0.40;99.90
6627;DHT22;3349;49.830;8.748;2024-02-28T05:17:17;0.40;99.90
6627;DHT22;3349;49.830;8.748;2024-02-28T05:19:43;0.40;99.90
6627;DHT22;3349;49.830;8.748;2024-02-28T05:22:10;0.30;99.90
6627;DHT22;3349;49.830;8.748;2024-02-28T05:24:37;0.30;99.90
6627;DHT22;3349;49.830;8.748;2024-02-28T05:27:04;0.30;99.90
6627;DHT22;3349;49.830;8.748;2024-02-28T05:29:31;0.20;99.90
6627;DHT22;3349;49.830;8.748;2024-02-28T05:31:59;0.20;99.90
6627;DHT22;3349;49.830;8.748;2024-02-28T05:34:25;0.10;99.90
6627;DHT22;3349;49.830;8.748;2024-02-28T05:36:52;0.10;99.90
6627;DHT22;3349;49.830;8.748;2024-02-28T05:39:19;0.20;99.90
6627;DHT22;3349;49.830;8.748;2024-02-28T05:41:45;0.20;99.90
6627;DHT22;3349;49.830;8.748;2024-02-28T05:44:12;0.10;99.90
6627;DHT22;3349;49.830;8.748;2024-02-28T05:46:39;0.10;99.90
6627;DHT22;3349;49.830;8.748;2024-02-28T05:49:07;0.00;99.90
6627;DHT22;3349;49.830;8.748;2024-02-28T05:51:34;0.00;99.90
6627;DHT22;3349;49.830;8.748;2024-02-28T05:54:01;0.00;99.90
6627;DHT22;3349;49.830;8.748;2024-02-28T05:56:29;0.00;99.90
6627;DHT22;3349;49.830;8.748;2024-02-28T05:58:55;-0.10;99.90
6627;DHT22;3349;49.830;8.748;2024-02-28T06:01:22;-0.10;99.90
6627;DHT22;3349;49.830;8.748;2024-02-28T06:03:49;-0.10;99.90
6627;DHT22;3349;49.830;8.748;2024-02-28T06:06:17;-0.10;99.90
6627;DHT22;3349;49.830;8.748;2024-02-28T06:08:44;0.00;99.90
6627;DHT22;3349;49.830;8.748;2024-02-28T06:11:11;0.00;99.90
6627;DHT22;3349;49.830;8.748;2024-02-28T06:13:39;0.00;99.90
6627;DHT22;3349;49.830;8.748;2024-02-28T06:16:06;0.00;99.90
6627;DHT22;3349;49.830;8.748;2024-02-28T06:18:33;0.00;99.90
6627;DHT22;3349;49.830;8.748;2024-02-28T06:21:00;0.00;99.90
6627;DHT22;3349;49.830;8.748;2024-02-28T06:23:28;0.00;99.90
6627;DHT22;3349;49.830;8.748;2024-02-28T06:25:55;0.00;99.90
6627;DHT22;3349;49.830;8.748;2024-02-28T06:28:22;0.00;99.90
6627;DHT22;3349;49.830;8.748;2024-02-28T06:30:48;0.00;99.90
6627;DHT22;3349;49.830;8.748;2024-02-28T06:33:15;0.00;99.90
6627;DHT22;3349;49.830;8.748;2024-02-28T06:35:42;0.00;99.90
6627;DHT22;3349;49.830;8.748;2024-02-28T06:38:08;0.00;99.90
6627;DHT22;3349;49.830;8.748;2024-02-28T06:40:36;0.10;99.90
6627;DHT22;3349;49.830;8.748;2024-02-28T06:43:03;0.10;99.90
6627;DHT22;3349;49.830;8.748;2024-02-28T06:45:30;0.20;99.90
6627;DHT22;3349;49.830;8.748;2024-02-28T06:47:57;0.30;99.90
6627;DHT22;3349;49.830;8.748;2024-02-28T06:50:24;0.40;99.90
6627;DHT22;3349;49.830;8.748;2024-02-28T06:52:50;0.60;99.90
6627;DHT22;3349;49.830;8.748;2024-02-28T06:55:19;0.80;99.90
6627;DHT22;3349;49.830;8.748;2024-02-28T06:57:47;1.00;99.90
6627;DHT22;3349;49.830;8.748;2024-02-28T07:00:13;1.10;99.90
6627;DHT22;3349;49.830;8.748;2024-02-28T07:02:41;1.30;99.90
6627;DHT22;3349;49.830;8.748;2024-02-28T07:05:08;1.50;99.90
6627;DHT22;3349;49.830;8.748;2024-02-28T07:07:35;1.60;99.90
6627;DHT22;3349;49.830;8.748;2024-02-28T07:10:03;1.80;99.90
6627;DHT22;3349;49.830;8.748;2024-02-28T07:12:30;1.90;99.90
6627;DHT22;3349;49.830;8.748;2024-02-28T07:14:58;2.10;99.90
6627;DHT22;3349;49.830;8.748;2024-02-28T07:17:25;2.20;99.90
6627;DHT22;3349;49.830;8.748;2024-02-28T07:19:52;2.30;99.90
6627;DHT22;3349;49.830;8.748;2024-02-28T07:22:19;2.50;99.90
6627;DHT22;3349;49.830;8.748;2024-02-28T07:24:47;2.60;99.90
6627;DHT22;3349;49.830;8.748;2024-02-28T07:27:13;2.80;99.90
6627;DHT22;3349;49.830;8.748;2024-02-28T07:29:41;2.90;99.90
6627;DHT22;3349;49.830;8.748;2024-02-28T07:32:09;3.00;99.90
6627;DHT22;3349;49.830;8.748;2024-02-28T07:34:35;3.10;99.90
6627;DHT22;3349;49.830;8.748;2024-02-28T07:37:02;3.20;99.90
6627;DHT22;3349;49.830;8.748;2024-02-28T07:39:29;3.20;99.90
6627;DHT22;3349;49.830;8.748;2024-02-28T07:41:56;3.20;99.90
6627;DHT22;3349;49.830;8.748;2024-02-28T07:44:22;3.30;99.90
6627;DHT22;3349;49.830;8.748;2024-02-28T07:46:49;3.50;99.90
6627;DHT22;3349;49.830;8.748;2024-02-28T07:49:18;3.60;99.90
6627;DHT22;3349;49.830;8.748;2024-02-28T07:51:44;3.70;99.90
6627;DHT22;3349;49.830;8.748;2024-02-28T07:54:11;3.70;99.90
6627;DHT22;3349;49.830;8.748;2024-02-28T07:56:38;3.80;99.90
6627;DHT22;3349;49.830;8.748;2024-02-28T07:59:05;3.80;99.90
6627;DHT22;3349;49.830;8.748;2024-02-28T08:01:31;3.90;99.90
6627;DHT22;3349;49.830;8.748;2024-02-28T08:03:58;4.00;99.90
6627;DHT22;3349;49.830;8.748;2024-02-28T08:06:26;3.90;99.90
6627;DHT22;3349;49.830;8.748;2024-02-28T08:08:53;4.00;99.90
6627;DHT22;3349;49.830;8.748;2024-02-28T08:11:20;3.90;99.80
6627;DHT22;3349;49.830;8.748;2024-02-28T08:13:47;4.00;99.90
6627;DHT22;3349;49.830;8.748;2024-02-28T08:16:14;4.10;99.90
6627;DHT22;3349;49.830;8.748;2024-02-28T08:18:41;4.10;99.90
6627;DHT22;3349;49.830;8.748;2024-02-28T08:21:09;4.10;99.90
6627;DHT22;3349;49.830;8.748;2024-02-28T08:23:37;4.10;99.10
6627;DHT22;3349;49.830;8.748;2024-02-28T08:26:03;4.10;98.30
6627;DHT22;3349;49.830;8.748;2024-02-28T08:28:30;4.10;98.30
6627;DHT22;3349;49.830;8.748;2024-02-28T08:30:58;4.10;98.80
6627;DHT22;3349;49.830;8.748;2024-02-28T08:33:25;4.10;98.90
6627;DHT22;3349;49.830;8.748;2024-02-28T08:35:52;4.20;99.00
6627;DHT22;3349;49.830;8.748;2024-02-28T08:38:19;4.30;99.70
6627;DHT22;3349;49.830;8.748;2024-02-28T08:40:47;4.30;98.90
6627;DHT22;3349;49.830;8.748;2024-02-28T08:43:13;4.30;98.20
6627;DHT22;3349;49.830;8.748;2024-02-28T08:45:40;4.40;98.20
6627;DHT22;3349;49.830;8.748;2024-02-28T08:48:07;4.50;98.40
6627;DHT22;3349;49.830;8.748;2024-02-28T08:50:34;4.50;98.00
6627;DHT22;3349;49.830;8.748;2024-02-28T08:53:01;4.50;97.40
6627;DHT22;3349;49.830;8.748;2024-02-28T08:55:28;4.40;97.10
6627;DHT22;3349;49.830;8.748;2024-02-28T08:57:56;4.40;96.50
6627;DHT22;3349;49.830;8.748;2024-02-28T09:00:23;4.50;96.80
6627;DHT22;3349;49.830;8.748;2024-02-28T09:02:50;4.40;96.50
6627;DHT22;3349;49.830;8.748;2024-02-28T09:05:17;4.50;97.10
6627;DHT22;3349;49.830;8.748;2024-02-28T09:07:44;4.60;97.10
6627;DHT22;3349;49.830;8.748;2024-02-28T09:10:11;4.70;97.30
6627;DHT22;3349;49.830;8.748;2024-02-28T09:12:38;4.70;96.60
6627;DHT22;3349;49.830;8.748;2024-02-28T09:15:07;4.70;96.50
6627;DHT22;3349;49.830;8.748;2024-02-28T09:17:34;4.70;96.50
6627;DHT22;3349;49.830;8.748;2024-02-28T09:20:01;4.70;96.60
6627;DHT22;3349;49.830;8.748;2024-02-28T09:22:29;4.90;96.70
6627;DHT22;3349;49.830;8.748;2024-02-28T09:24:56;4.90;96.00
6627;DHT22;3349;49.830;8.748;2024-02-28T09:27:23;5.00;95.80
6627;DHT22;3349;49.830;8.748;2024-02-28T09:29:51;5.00;95.60
6627;DHT22;3349;49.830;8.748;2024-02-28T09:32:19;5.00;96.40
6627;DHT22;3349;49.830;8.748;2024-02-28T09:34:46;5.20;97.20
6627;DHT22;3349;49.830;8.748;2024-02-28T09:37:13;5.40;96.70
6627;DHT22;3349;49.830;8.748;2024-02-28T09:39:41;5.40;95.50
6627;DHT22;3349;49.830;8.748;2024-02-28T09:42:08;5.40;94.80
6627;DHT22;3349;49.830;8.748;2024-02-28T09:44:36;5.50;94.60
6627;DHT22;3349;49.830;8.748;2024-02-28T09:47:04;5.50;94.00
6627;DHT22;3349;49.830;8.748;2024-02-28T09:49:34;5.60;93.90
6627;DHT22;3349;49.830;8.748;2024-02-28T09:52:03;5.50;92.00
6627;DHT22;3349;49.830;8.748;2024-02-28T09:54:30;5.60;92.40
6627;DHT22;3349;49.830;8.748;2024-02-28T09:56:57;5.80;91.80
6627;DHT22;3349;49.830;8.748;2024-02-28T09:59:24;6.00;92.40
6627;DHT22;3349;49.830;8.748;2024-02-28T10:01:55;6.20;91.00
6627;DHT22;3349;49.830;8.748;2024-02-28T10:04:23;6.10;89.00
6627;DHT22;3349;49.830;8.748;2024-02-28T10:06:51;6.10;88.80
6627;DHT22;3349;49.830;8.748;2024-02-28T10:09:18;6.20;88.40
6627;DHT22;3349;49.830;8.748;2024-02-28T10:11:45;6.20;87.00
6627;DHT22;3349;49.830;8.748;2024-02-28T10:14:17;6.50;85.80
6627;DHT22;3349;49.830;8.748;2024-02-28T10:16:44;6.50;84.60
6627;DHT22;3349;49.830;8.748;2024-02-28T10:19:11;6.70;84.70
6627;DHT22;3349;49.830;8.748;2024-02-28T10:21:38;7.00;83.00
6627;DHT22;3349;49.830;8.748;2024-02-28T10:24:06;7.20;80.00
6627;DHT22;3349;49.830;8.748;2024-02-28T10:26:41;7.50;79.80
6627;DHT22;3349;49.830;8.748;2024-02-28T10:29:08;7.80;77.40
6627;DHT22;3349;49.830;8.748;2024-02-28T10:31:35;8.00;75.50
6627;DHT22;3349;49.830;8.748;2024-02-28T10:34:04;8.10;73.30
6627;DHT22;3349;49.830;8.748;2024-02-28T10:36:32;8.20;73.10
6627;DHT22;3349;49.830;8.748;2024-02-28T10:39:00;8.10;73.40
6627;DHT22;3349;49.830;8.748;2024-02-28T10:41:28;8.40;74.00
6627;DHT22;3349;49.830;8.748;2024-02-28T10:43:55;8.60;72.00
6627;DHT22;3349;49.830;8.748;2024-02-28T10:46:21;8.90;69.00
6627;DHT22;3349;49.830;8.748;2024-02-28T10:48:49;9.10;68.70
6627;DHT22;3349;49.830;8.748;2024-02-28T10:51:23;9.60;67.40
6627;DHT22;3349;49.830;8.748;2024-02-28T10:53:56;10.20;63.90
6627;DHT22;3349;49.830;8.748;2024-02-28T10:56:28;10.60;61.30
6627;DHT22;3349;49.830;8.748;2024-02-28T10:58:57;10.70;58.90
6627;DHT22;3349;49.830;8.748;2024-02-28T11:01:25;11.00;57.40
6627;DHT22;3349;49.830;8.748;2024-02-28T11:03:53;11.40;57.60
6627;DHT22;3349;49.830;8.748;2024-02-28T11:06:21;11.60;56.20
6627;DHT22;3349;49.830;8.748;2024-02-28T11:08:49;11.80;53.70
6627;DHT22;3349;49.830;8.748;2024-02-28T11:11:19;12.40;53.70
6627;DHT22;3349;49.830;8.748;2024-02-28T11:13:54;12.50;52.40
6627;DHT22;3349;49.830;8.748;2024-02-28T11:16:29;13.80;51.60
6627;DHT22;3349;49.830;8.748;2024-02-28T11:18:56;15.00;50.50
6627;DHT22;3349;49.830;8.748;2024-02-28T11:21:23;16.50;45.60
6627;DHT22;3349;49.830;8.748;2024-02-28T11:23:51;17.20;41.50
6627;DHT22;3349;49.830;8.748;2024-02-28T11:26:18;18.20;39.60
6627;DHT22;3349;49.830;8.748;2024-02-28T11:28:46;19.20;37.80
6627;DHT22;3349;49.830;8.748;2024-02-28T11:31:14;19.30;37.30
6627;DHT22;3349;49.830;8.748;2024-02-28T11:33:41;19.80;34.70
6627;DHT22;3349;49.830;8.748;2024-02-28T11:36:08;20.50;35.90
6627;DHT22;3349;49.830;8.748;2024-02-28T11:38:38;20.80;33.20
6627;DHT22;3349;49.830;8.748;2024-02-28T11:41:05;19.90;33.70
6627;DHT22;3349;49.830;8.748;2024-02-28T11:43:31;20.60;34.60
6627;DHT22;3349;49.830;8.748;2024-02-28T11:46:00;20.90;32.10
6627;DHT22;3349;49.830;8.748;2024-02-28T11:48:28;20.80;34.00
6627;DHT22;3349;49.830;8.748;2024-02-28T11:50:56;20.50;32.10
6627;DHT22;3349;49.830;8.748;2024-02-28T11:53:24;21.30;30.70
6627;DHT22;3349;49.830;8.748;2024-02-28T11:55:52;22.30;30.50
6627;DHT22;3349;49.830;8.748;2024-02-28T11:58:21;22.20;29.60
6627;DHT22;3349;49.830;8.748;2024-02-28T12:00:48;22.20;29.60
6627;DHT22;3349;49.830;8.748;2024-02-28T12:03:20;22.30;29.30
6627;DHT22;3349;49.830;8.748;2024-02-28T12:05:48;22.50;28.90
6627;DHT22;3349;49.830;8.748;2024-02-28T12:08:17;22.30;28.70
6627;DHT22;3349;49.830;8.748;2024-02-28T12:10:44;23.20;28.80
6627;DHT22;3349;49.830;8.748;2024-02-28T12:13:11;22.70;28.30
6627;DHT22;3349;49.830;8.748;2024-02-28T12:15:39;22.80;28.60
6627;DHT22;3349;49.830;8.748;2024-02-28T12:18:10;22.20;27.50
6627;DHT22;3349;49.830;8.748;2024-02-28T12:20:37;23.10;27.90
6627;DHT22;3349;49.830;8.748;2024-02-28T12:23:05;23.60;26.50
6627;DHT22;3349;49.830;8.748;2024-02-28T12:25:33;23.20;26.70
6627;DHT22;3349;49.830;8.748;2024-02-28T12:28:01;23.80;26.60
6627;DHT22;3349;49.830;8.748;2024-02-28T12:30:29;23.10;26.70
6627;DHT22;3349;49.830;8.748;2024-02-28T12:32:56;23.70;24.80
6627;DHT22;3349;49.830;8.748;2024-02-28T12:35:22;23.00;25.90
6627;DHT22;3349;49.830;8.748;2024-02-28T12:37:49;23.00;26.10
6627;DHT22;3349;49.830;8.748;2024-02-28T12:40:17;22.70;25.90
6627;DHT22;3349;49.830;8.748;2024-02-28T12:42:44;23.20;26.30
6627;DHT22;3349;49.830;8.748;2024-02-28T12:45:11;23.00;25.00
6627;DHT22;3349;49.830;8.748;2024-02-28T12:47:39;23.10;24.20
6627;DHT22;3349;49.830;8.748;2024-02-28T12:50:06;23.00;22.90
6627;DHT22;3349;49.830;8.748;2024-02-28T12:52:34;23.10;22.80
6627;DHT22;3349;49.830;8.748;2024-02-28T12:55:01;23.80;22.00
6627;DHT22;3349;49.830;8.748;2024-02-28T12:57:29;24.30;22.20
6627;DHT22;3349;49.830;8.748;2024-02-28T12:59:56;23.90;20.80
6627;DHT22;3349;49.830;8.748;2024-02-28T13:02:23;22.70;21.90
6627;DHT22;3349;49.830;8.748;2024-02-28T13:04:50;22.10;22.00
6627;DHT22;3349;49.830;8.748;2024-02-28T13:07:16;22.60;22.70
6627;DHT22;3349;49.830;8.748;2024-02-28T13:09:45;23.20;21.80
6627;DHT22;3349;49.830;8.748;2024-02-28T13:12:12;23.50;21.60
6627;DHT22;3349;49.830;8.748;2024-02-28T13:14:40;23.70;21.80
6627;DHT22;3349;49.830;8.748;2024-02-28T13:17:06;24.30;21.00
6627;DHT22;3349;49.830;8.748;2024-02-28T13:19:33;24.30;20.90
6627;DHT22;3349;49.830;8.748;2024-02-28T13:22:00;24.10;20.80
6627;DHT22;3349;49.830;8.748;2024-02-28T13:24:26;24.20;21.30
6627;DHT22;3349;49.830;8.748;2024-02-28T13:26:53;24.00;20.90
6627;DHT22;3349;49.830;8.748;2024-02-28T13:29:20;24.00;21.00
6627;DHT22;3349;49.830;8.748;2024-02-28T13:31:48;24.30;21.00
6627;DHT22;3349;49.830;8.748;2024-02-28T13:34:15;23.80;21.30
6627;DHT22;3349;49.830;8.748;2024-02-28T13:36:42;23.90;21.70
6627;DHT22;3349;49.830;8.748;2024-02-28T13:39:09;23.50;21.30
6627;DHT22;3349;49.830;8.748;2024-02-28T13:41:37;22.90;21.40
6627;DHT22;3349;49.830;8.748;2024-02-28T13:44:03;22.70;21.40
6627;DHT22;3349;49.830;8.748;2024-02-28T13:46:30;22.20;22.40
6627;DHT22;3349;49.830;8.748;2024-02-28T13:48:59;21.80;22.90
6627;DHT22;3349;49.830;8.748;2024-02-28T13:51:25;21.00;23.80
6627;DHT22;3349;49.830;8.748;2024-02-28T13:53:52;19.90;24.10
6627;DHT22;3349;49.830;8.748;2024-02-28T13:56:19;18.80;25.20
6627;DHT22;3349;49.830;8.748;2024-02-28T13:58:46;18.10;26.00
6627;DHT22;3349;49.830;8.748;2024-02-28T14:01:13;17.80;26.80
6627;DHT22;3349;49.830;8.748;2024-02-28T14:03:40;18.00;26.50
6627;DHT22;3349;49.830;8.748;2024-02-28T14:06:08;18.00;26.30
6627;DHT22;3349;49.830;8.748;2024-02-28T14:08:34;18.50;26.90
6627;DHT22;3349;49.830;8.748;2024-02-28T14:11:01;18.50;23.90
6627;DHT22;3349;49.830;8.748;2024-02-28T14:13:28;19.40;23.80
6627;DHT22;3349;49.830;8.748;2024-02-28T14:15:54;19.80;23.30
6627;DHT22;3349;49.830;8.748;2024-02-28T14:18:21;19.90;22.30
6627;DHT22;3349;49.830;8.748;2024-02-28T14:20:48;20.20;23.00
6627;DHT22;3349;49.830;8.748;2024-02-28T14:23:16;20.60;22.80
6627;DHT22;3349;49.830;8.748;2024-02-28T14:25:43;20.60;21.60
6627;DHT22;3349;49.830;8.748;2024-02-28T14:28:10;21.50;21.40
6627;DHT22;3349;49.830;8.748;2024-02-28T14:30:38;21.10;20.10
6627;DHT22;3349;49.830;8.748;2024-02-28T14:33:05;20.80;21.40
6627;DHT22;3349;49.830;8.748;2024-02-28T14:35:31;20.60;20.70
6627;DHT22;3349;49.830;8.748;2024-02-28T14:37:58;20.40;21.10
6627;DHT22;3349;49.830;8.748;2024-02-28T14:40:26;20.30;21.00
6627;DHT22;3349;49.830;8.748;2024-02-28T14:42:53;20.10;21.20
6627;DHT22;3349;49.830;8.748;2024-02-28T14:45:20;20.00;22.00
6627;DHT22;3349;49.830;8.748;2024-02-28T14:47:47;19.80;21.50
6627;DHT22;3349;49.830;8.748;2024-02-28T14:50:14;19.70;22.10
6627;DHT22;3349;49.830;8.748;2024-02-28T14:52:41;19.30;23.70
6627;DHT22;3349;49.830;8.748;2024-02-28T14:55:09;18.90;23.50
6627;DHT22;3349;49.830;8.748;2024-02-28T14:57:37;18.30;24.10
6627;DHT22;3349;49.830;8.748;2024-02-28T15:00:05;18.10;24.50
6627;DHT22;3349;49.830;8.748;2024-02-28T15:02:34;17.60;25.00
6627;DHT22;3349;49.830;8.748;2024-02-28T15:05:01;17.20;25.80
6627;DHT22;3349;49.830;8.748;2024-02-28T15:07:30;17.30;25.40
6627;DHT22;3349;49.830;8.748;2024-02-28T15:09:57;17.00;25.50
6627;DHT22;3349;49.830;8.748;2024-02-28T15:12:25;16.70;25.60
6627;DHT22;3349;49.830;8.748;2024-02-28T15:14:53;16.70;25.10
6627;DHT22;3349;49.830;8.748;2024-02-28T15:17:20;16.20;25.90
6627;DHT22;3349;49.830;8.748;2024-02-28T15:19:47;15.90;26.80
6627;DHT22;3349;49.830;8.748;2024-02-28T15:22:14;15.60;27.20
6627;DHT22;3349;49.830;8.748;2024-02-28T15:24:40;15.50;27.80
6627;DHT22;3349;49.830;8.748;2024-02-28T15:27:07;15.40;27.70
6627;DHT22;3349;49.830;8.748;2024-02-28T15:29:34;15.20;28.00
6627;DHT22;3349;49.830;8.748;2024-02-28T15:32:02;15.40;28.00
6627;DHT22;3349;49.830;8.748;2024-02-28T15:34:29;15.70;27.80
6627;DHT22;3349;49.830;8.748;2024-02-28T15:36:56;15.80;26.50
6627;DHT22;3349;49.830;8.748;2024-02-28T15:39:23;15.70;26.70
6627;DHT22;3349;49.830;8.748;2024-02-28T15:41:49;15.70;26.30
6627;DHT22;3349;49.830;8.748;2024-02-28T15:44:17;15.70;26.60
6627;DHT22;3349;49.830;8.748;2024-02-28T15:46:43;15.60;27.00
6627;DHT22;3349;49.830;8.748;2024-02-28T15:49:11;15.50;26.90
6627;DHT22;3349;49.830;8.748;2024-02-28T15:51:38;15.50;26.70
6627;DHT22;3349;49.830;8.748;2024-02-28T15:54:05;15.30;28.00
6627;DHT22;3349;49.830;8.748;2024-02-28T15:56:32;15.10;27.70
6627;DHT22;3349;49.830;8.748;2024-02-28T15:58:59;14.80;28.40
6627;DHT22;3349;49.830;8.748;2024-02-28T16:01:26;14.40;28.60
6627;DHT22;3349;49.830;8.748;2024-02-28T16:03:52;14.10;28.10
6627;DHT22;3349;49.830;8.748;2024-02-28T16:06:20;13.80;28.80
6627;DHT22;3349;49.830;8.748;2024-02-28T16:08:49;13.50;30.70
6627;DHT22;3349;49.830;8.748;2024-02-28T16:11:16;13.30;30.60